Terminal Aerodrome Forecast
Issued by NWS

Home | Current Version | Previous Version | Text Only | Print | Product List | Glossary On
Versions: 1 2 3 4 5 6 7 8 9 10 11 12 13 14 15 16 17 18 19 20 21 22 23 24 25 26 27 28 29
000
FTUS41 KBUF 241700
TAFJHW
TAF
KJHW 241735Z 2418/2518 27009KT P6SM BKN200
     FM242300 26005KT P6SM SCT150
     FM250500 23005KT P6SM BKN040
     FM250700 22006KT P6SM OVC030
     FM250900 23006KT P6SM OVC020
     FM251400 23012KT P6SM BKN090
     FM251700 23014G21KT P6SM BKN070
      AMD LTD TO CLD VIS AND WIND=

USA.gov is the U.S. government's official web portal to all federal, state and local government web resources and services.